Time;durP1;ratioP1;P1;durP2;ratioP2;P2;SDS_P1;SDS_P2;PMS_P1;PMS_P2;Temp;Humidity;BMP_temperature;BMP_pressure;BME280_temperature;BME280_humidity;BME280_pressure;Samples;Min_cycle;Max_cycle;Signal;HPM_P1;HPM_P2
2022/01/24 00:01:49;;;;;;;6.93;4.13;;;;;;;;;;4996855;28;20440;-87
2022/01/24 00:04:15;;;;;;;6.80;3.72;;;;;;;;;;4996657;28;20462;-87
2022/01/24 00:06:41;;;;;;;5.90;3.45;;;;;;;;;;4996581;28;20052;-87
2022/01/24 00:09:09;;;;;;;7.72;3.83;;;;;;;;;;4996505;28;20049;-86
2022/01/24 00:11:44;;;;;;;6.60;3.42;;;;;;;;;;4996489;28;20497;-87
2022/01/24 00:27:23;;;;;;;6.43;3.13;;;;;;;;;;4996095;28;20042;-86
2022/01/24 00:29:49;;;;;;;6.95;3.50;;;;;;;;;;4996290;28;20046;-86
2022/01/24 00:32:15;;;;;;;6.78;3.60;;;;;;;;;;4996239;28;20037;-86
2022/01/24 00:34:41;;;;;;;7.57;3.63;;;;;;;;;;4996235;28;20050;-86
2022/01/24 00:37:08;;;;;;;6.20;3.45;;;;;;;;;;4995945;28;20041;-87
2022/01/24 00:39:34;;;;;;;7.10;3.67;;;;;;;;;;4996150;28;20042;-87
2022/01/24 00:45:13;;;;;;;7.47;3.70;;;;;;;;;;4943487;28;20053;-87
2022/01/24 00:48:00;;;;;;;6.43;3.70;;;;;;;;;;4979809;28;20384;-87
2022/01/24 00:53:38;;;;;;;8.05;4.32;;;;;;;;;;4996211;28;20049;-87
2022/01/24 00:56:05;;;;;;;8.48;4.45;;;;;;;;;;4983116;28;20034;-87
2022/01/24 00:58:31;;;;;;;6.88;4.13;;;;;;;;;;5013584;28;20034;-86
2022/01/24 01:00:57;;;;;;;7.47;4.13;;;;;;;;;;4995621;28;20489;-87
2022/01/24 01:03:24;;;;;;;7.88;4.85;;;;;;;;;;4995407;28;20039;-86
2022/01/24 01:06:07;;;;;;;8.80;5.57;;;;;;;;;;4979601;28;20046;-87
2022/01/24 01:19:35;;;;;;;10.48;5.35;;;;;;;;;;4995643;28;20050;-87
2022/01/24 01:22:01;;;;;;;8.80;5.22;;;;;;;;;;4995592;28;20050;-87
2022/01/24 01:24:29;;;;;;;9.18;6.28;;;;;;;;;;4995561;28;20057;-86
2022/01/24 01:27:07;;;;;;;11.50;6.38;;;;;;;;;;4995326;28;20548;-86
2022/01/24 01:33:12;;;;;;;9.45;6.47;;;;;;;;;;4995149;28;20041;-87
2022/01/24 01:37:59;;;;;;;9.18;5.95;;;;;;;;;;5012853;28;20096;-86
2022/01/24 01:56:42;;;;;;;10.85;5.57;;;;;;;;;;4995501;28;20004;-87
2022/01/24 01:59:09;;;;;;;9.35;5.78;;;;;;;;;;4995439;28;20131;-87
2022/01/24 02:01:35;;;;;;;8.75;5.72;;;;;;;;;;4995151;28;20200;-87
2022/01/24 02:04:03;;;;;;;8.30;4.85;;;;;;;;;;4995327;28;20134;-87
2022/01/24 02:06:29;;;;;;;8.95;4.90;;;;;;;;;;4995077;28;20064;-87
2022/01/24 02:09:04;;;;;;;10.77;5.53;;;;;;;;;;4995285;28;20106;-86
2022/01/24 02:11:30;;;;;;;7.97;5.33;;;;;;;;;;4995137;28;20046;-87
2022/01/24 02:14:01;;;;;;;9.25;5.68;;;;;;;;;;4995107;28;20625;-86
2022/01/24 02:17:15;;;;;;;11.82;5.80;;;;;;;;;;4998599;28;20034;-87
2022/01/24 02:24:31;;;;;;;9.18;5.22;;;;;;;;;;4998873;28;20049;-86
2022/01/24 02:26:58;;;;;;;10.50;6.07;;;;;;;;;;4998453;28;20042;-86
2022/01/24 02:31:54;;;;;;;10.77;6.63;;;;;;;;;;5001593;28;20401;-86
2022/01/24 02:34:33;;;;;;;9.55;6.10;;;;;;;;;;4998479;28;20046;-86
2022/01/24 02:37:02;;;;;;;9.82;6.40;;;;;;;;;;4982369;28;20077;-87
2022/01/24 02:50:51;;;;;;;;;;;;;;;;;;4998974;28;20065;-87
2022/01/24 02:53:12;;;;;;;11.68;5.95;;;;;;;;;;4997782;28;19921;-87
2022/01/24 02:55:39;;;;;;;10.15;6.50;;;;;;;;;;4998160;28;20100;-88
2022/01/24 02:58:05;;;;;;;10.50;5.95;;;;;;;;;;4981937;28;20092;-86
2022/01/24 03:00:31;;;;;;;10.00;6.70;;;;;;;;;;4998042;28;20053;-87
2022/01/24 03:02:57;;;;;;;9.90;6.25;;;;;;;;;;4997738;28;20045;-86
2022/01/24 03:05:23;;;;;;;9.45;6.47;;;;;;;;;;4981889;28;20386;-87
2022/01/24 03:07:49;;;;;;;11.93;7.03;;;;;;;;;;4997733;28;20448;-87
2022/01/24 03:10:25;;;;;;;9.73;6.18;;;;;;;;;;4981686;28;20038;-86
2022/01/24 03:15:40;;;;;;;11.13;7.03;;;;;;;;;;4997740;28;20050;-87
2022/01/24 03:18:06;;;;;;;11.93;6.95;;;;;;;;;;4997563;28;20429;-86
2022/01/24 03:20:33;;;;;;;10.40;6.60;;;;;;;;;;4997993;28;20481;-88
2022/01/24 03:22:59;;;;;;;9.70;6.10;;;;;;;;;;4997492;28;20046;-87
2022/01/24 03:25:25;;;;;;;11.85;7.07;;;;;;;;;;4997376;28;20157;-86
2022/01/24 03:27:51;;;;;;;10.88;7.13;;;;;;;;;;4997558;28;20482;-86
2022/01/24 03:30:17;;;;;;;12.85;6.95;;;;;;;;;;4997502;28;20442;-87
2022/01/24 03:32:43;;;;;;;10.88;6.57;;;;;;;;;;4997304;28;20116;-87
2022/01/24 03:35:09;;;;;;;10.30;6.57;;;;;;;;;;4981189;28;20413;-87
2022/01/24 03:37:35;;;;;;;12.73;7.35;;;;;;;;;;4997277;28;20193;-87
2022/01/24 03:40:02;;;;;;;10.55;6.57;;;;;;;;;;5014925;28;20048;-87
2022/01/24 03:42:28;;;;;;;11.75;7.32;;;;;;;;;;4997017;28;20069;-86
2022/01/24 03:44:58;;;;;;;12.57;6.95;;;;;;;;;;4980883;28;20464;-87
2022/01/24 03:47:43;;;;;;;12.82;7.78;;;;;;;;;;4997181;28;20060;-86
2022/01/24 03:50:13;;;;;;;12.10;6.72;;;;;;;;;;4980914;28;20073;-88
2022/01/24 03:52:39;;;;;;;13.43;8.45;;;;;;;;;;4996886;28;20046;-88
2022/01/24 03:55:06;;;;;;;11.82;7.97;;;;;;;;;;4980960;28;20060;-87
2022/01/24 03:57:32;;;;;;;12.88;8.45;;;;;;;;;;4997020;28;20129;-88
2022/01/24 03:59:58;;;;;;;13.93;8.48;;;;;;;;;;4996745;28;20077;-88
2022/01/24 04:02:25;;;;;;;12.82;8.15;;;;;;;;;;4996879;28;20205;-86
2022/01/24 04:04:52;;;;;;;12.32;8.02;;;;;;;;;;5014421;28;20069;-87
2022/01/24 04:07:18;;;;;;;13.57;8.30;;;;;;;;;;4998684;28;20555;-91
2022/01/24 04:09:44;;;;;;;14.50;8.23;;;;;;;;;;4998616;28;20045;-87
2022/01/24 04:12:11;;;;;;;13.48;8.52;;;;;;;;;;4980385;28;20378;-87
2022/01/24 04:14:54;;;;;;;12.18;8.35;;;;;;;;;;4996412;28;20041;-86
2022/01/24 04:17:23;;;;;;;13.20;8.57;;;;;;;;;;4996916;28;20038;-87
2022/01/24 04:22:23;;;;;;;14.38;8.45;;;;;;;;;;4996658;28;20057;-86
2022/01/24 04:24:49;;;;;;;15.35;9.05;;;;;;;;;;4980341;28;20452;-86
2022/01/24 04:27:15;;;;;;;14.82;8.88;;;;;;;;;;4980404;28;20041;-87
2022/01/24 04:29:42;;;;;;;14.15;9.43;;;;;;;;;;4996106;28;20042;-87
2022/01/24 04:32:08;;;;;;;15.50;9.02;;;;;;;;;;4996307;28;20038;-87
2022/01/24 04:34:35;;;;;;;17.45;9.57;;;;;;;;;;4996270;28;20477;-87
2022/01/24 04:37:01;;;;;;;14.40;9.18;;;;;;;;;;4996029;28;20405;-89
2022/01/24 04:39:27;;;;;;;15.30;10.05;;;;;;;;;;4995698;28;20045;-88
2022/01/24 04:41:56;;;;;;;16.30;10.05;;;;;;;;;;4996359;28;20449;-86
2022/01/24 04:47:08;;;;;;;18.97;10.23;;;;;;;;;;4996047;28;20133;-87
2022/01/24 04:54:51;;;;;;;15.80;9.85;;;;;;;;;;4995828;28;20096;-87
2022/01/24 04:57:22;;;;;;;18.45;10.60;;;;;;;;;;4996142;28;20056;-86
2022/01/24 04:59:50;;;;;;;18.73;11.43;;;;;;;;;;4995932;28;20057;-86
2022/01/24 05:02:17;;;;;;;16.30;10.55;;;;;;;;;;4995727;28;20125;-87
2022/01/24 05:04:43;;;;;;;16.60;10.93;;;;;;;;;;4995516;28;20038;-87
2022/01/24 05:07:09;;;;;;;18.60;11.38;;;;;;;;;;4996020;28;20049;-86
2022/01/24 05:10:04;;;;;;;16.10;10.23;;;;;;;;;;4995539;28;20072;-87
2022/01/24 05:21:28;;;;;;;17.30;11.20;;;;;;;;;;4995147;28;20516;-87
2022/01/24 05:23:38;;;;;;;18.23;11.50;;;;;;;;;;4995347;28;20131;-86
2022/01/24 05:26:06;;;;;;;16.20;11.02;;;;;;;;;;4995462;28;20058;-87
2022/01/24 05:28:32;;;;;;;17.63;10.73;;;;;;;;;;4978994;28;20042;-87
2022/01/24 05:30:59;;;;;;;18.45;11.20;;;;;;;;;;4995581;28;20048;-87
2022/01/24 05:33:25;;;;;;;17.15;11.45;;;;;;;;;;4995337;28;20041;-86
2022/01/24 05:35:51;;;;;;;18.10;11.13;;;;;;;;;;4995482;28;20034;-87
2022/01/24 05:38:19;;;;;;;19.13;11.32;;;;;;;;;;4995365;28;20033;-87
2022/01/24 05:40:45;;;;;;;16.45;10.52;;;;;;;;;;4998548;28;20045;-86
2022/01/24 05:43:11;;;;;;;17.10;11.07;;;;;;;;;;4995074;28;20065;-87
2022/01/24 05:45:37;;;;;;;16.90;11.05;;;;;;;;;;4995100;28;20076;-87
2022/01/24 05:48:04;;;;;;;17.20;11.40;;;;;;;;;;4979168;28;20074;-87
2022/01/24 05:50:30;;;;;;;15.48;10.05;;;;;;;;;;4998558;28;20444;-86
2022/01/24 05:52:56;;;;;;;18.40;11.52;;;;;;;;;;4999335;28;20497;-87
2022/01/24 05:55:22;;;;;;;18.10;10.80;;;;;;;;;;4999306;28;20038;-87
2022/01/24 05:57:48;;;;;;;15.85;10.20;;;;;;;;;;4999136;28;20130;-86
2022/01/24 06:00:14;;;;;;;17.77;10.65;;;;;;;;;;4999072;28;20140;-87
2022/01/24 06:02:41;;;;;;;15.02;10.25;;;;;;;;;;4999057;28;20115;-86
2022/01/24 06:05:08;;;;;;;17.13;10.93;;;;;;;;;;4998940;28;20077;-87
2022/01/24 06:07:34;;;;;;;15.82;10.27;;;;;;;;;;4999351;28;20042;-86
2022/01/24 06:10:00;;;;;;;15.43;10.35;;;;;;;;;;4998886;28;20042;-87
2022/01/24 06:12:27;;;;;;;16.85;9.88;;;;;;;;;;4998877;28;20064;-87
2022/01/24 06:14:53;;;;;;;13.68;9.95;;;;;;;;;;4982331;28;20042;-87
2022/01/24 06:17:19;;;;;;;15.20;9.60;;;;;;;;;;4999015;28;20124;-86
2022/01/24 06:19:45;;;;;;;16.45;10.82;;;;;;;;;;4998615;28;20050;-87
2022/01/24 06:22:11;;;;;;;16.88;10.52;;;;;;;;;;4999021;28;20374;-87
2022/01/24 06:24:37;;;;;;;14.90;10.13;;;;;;;;;;4998578;28;20067;-86
2022/01/24 06:27:03;;;;;;;15.93;10.65;;;;;;;;;;5016266;28;20038;-87
2022/01/24 06:29:29;;;;;;;17.85;10.15;;;;;;;;;;4998365;28;20046;-86
2022/01/24 06:31:55;;;;;;;14.77;9.43;;;;;;;;;;4998603;28;20038;-87
2022/01/24 06:34:21;;;;;;;14.77;9.60;;;;;;;;;;4998265;28;20200;-86
2022/01/24 06:36:47;;;;;;;14.77;9.63;;;;;;;;;;4998678;28;20041;-87
2022/01/24 06:39:14;;;;;;;16.40;10.00;;;;;;;;;;4998707;28;20041;-86
2022/01/24 06:41:42;;;;;;;16.70;10.30;;;;;;;;;;4998287;28;20096;-87
2022/01/24 06:44:08;;;;;;;17.55;10.10;;;;;;;;;;4998338;28;20091;-87
2022/01/24 06:46:34;;;;;;;17.35;10.48;;;;;;;;;;4998097;28;20353;-87
2022/01/24 06:49:01;;;;;;;14.98;9.88;;;;;;;;;;4998311;28;20465;-88
2022/01/24 06:51:27;;;;;;;15.65;10.15;;;;;;;;;;4998088;28;20125;-86
2022/01/24 06:53:53;;;;;;;16.27;9.90;;;;;;;;;;4998162;28;20429;-88
2022/01/24 06:56:19;;;;;;;14.38;9.85;;;;;;;;;;4997909;28;20049;-86
2022/01/24 06:58:45;;;;;;;16.58;10.38;;;;;;;;;;4998105;28;20034;-86
2022/01/24 07:01:11;;;;;;;19.02;11.75;;;;;;;;;;4997594;28;20118;-87
2022/01/24 07:03:37;;;;;;;15.63;10.48;;;;;;;;;;4997935;28;20046;-87
2022/01/24 07:06:04;;;;;;;17.75;11.35;;;;;;;;;;4997810;28;20399;-87
2022/01/24 07:08:30;;;;;;;18.17;10.18;;;;;;;;;;4982002;28;20124;-87
2022/01/24 07:10:56;;;;;;;15.75;10.10;;;;;;;;;;5017460;28;20524;-87
2022/01/24 07:13:22;;;;;;;15.18;9.75;;;;;;;;;;4997728;28;20137;-87
2022/01/24 07:15:57;;;;;;;17.42;9.38;;;;;;;;;;4997593;28;20038;-87
2022/01/24 07:20:52;;;;;;;16.40;10.30;;;;;;;;;;4997929;28;20104;-86
2022/01/24 07:23:18;;;;;;;14.77;9.75;;;;;;;;;;4997590;28;20480;-88
2022/01/24 07:25:45;;;;;;;15.80;9.82;;;;;;;;;;4997495;28;20076;-87
2022/01/24 07:28:11;;;;;;;16.65;10.82;;;;;;;;;;4981160;28;20045;-86
2022/01/24 07:30:37;;;;;;;16.42;10.10;;;;;;;;;;4997249;28;20042;-87
2022/01/24 07:33:03;;;;;;;14.65;10.05;;;;;;;;;;4997477;28;20117;-86
2022/01/24 07:35:29;;;;;;;15.70;9.50;;;;;;;;;;5015008;28;20068;-86
2022/01/24 07:37:55;;;;;;;16.63;10.23;;;;;;;;;;5033244;28;20038;-86
2022/01/24 07:40:22;;;;;;;17.25;10.98;;;;;;;;;;5032749;28;20492;-87
2022/01/24 07:45:18;;;;;;;14.77;9.57;;;;;;;;;;5034114;28;20053;-86
2022/01/24 07:47:46;;;;;;;17.38;10.18;;;;;;;;;;5016464;28;20087;-86
2022/01/24 07:50:12;;;;;;;14.63;9.80;;;;;;;;;;5032758;28;20497;-86
2022/01/24 07:52:38;;;;;;;15.57;10.00;;;;;;;;;;5016444;28;20044;-84
2022/01/24 07:55:04;;;;;;;16.13;10.05;;;;;;;;;;5016201;28;20117;-83
2022/01/24 07:57:30;;;;;;;15.95;10.07;;;;;;;;;;5016356;28;20052;-88
2022/01/24 07:59:56;;;;;;;17.20;10.15;;;;;;;;;;5034152;28;20045;-88
2022/01/24 08:02:22;;;;;;;17.98;10.82;;;;;;;;;;5016318;28;20053;-81
2022/01/24 08:04:48;;;;;;;17.27;10.70;;;;;;;;;;5033803;28;20499;-87
2022/01/24 08:07:14;;;;;;;17.02;10.93;;;;;;;;;;5015517;28;20404;-88
2022/01/24 08:09:40;;;;;;;17.17;11.18;;;;;;;;;;5016180;28;20037;-86
2022/01/24 08:12:06;;;;;;;15.10;10.40;;;;;;;;;;5032488;28;20087;-87
2022/01/24 08:14:32;;;;;;;16.50;10.55;;;;;;;;;;5015764;28;20041;-87
2022/01/24 08:17:00;;;;;;;16.50;10.75;;;;;;;;;;5015647;28;20048;-87
2022/01/24 08:19:26;;;;;;;20.20;11.48;;;;;;;;;;5032592;28;20046;-87
2022/01/24 08:21:53;;;;;;;18.83;11.13;;;;;;;;;;5015431;28;20485;-87
2022/01/24 08:24:19;;;;;;;18.58;11.60;;;;;;;;;;5015790;28;20041;-87
2022/01/24 08:26:45;;;;;;;16.50;10.90;;;;;;;;;;5015527;28;20532;-87
2022/01/24 08:29:13;;;;;;;19.63;12.48;;;;;;;;;;5015843;28;20048;-87
2022/01/24 08:31:39;;;;;;;21.10;12.10;;;;;;;;;;5031827;28;20500;-88
2022/01/24 08:34:05;;;;;;;19.25;12.75;;;;;;;;;;5016936;28;20099;-87
2022/01/24 08:36:31;;;;;;;19.17;12.45;;;;;;;;;;5015198;28;20512;-88
2022/01/24 08:39:04;;;;;;;19.65;12.70;;;;;;;;;;5015640;28;20128;-87
2022/01/24 08:41:40;;;;;;;21.63;13.65;;;;;;;;;;5026519;28;20045;-87
2022/01/24 08:44:19;;;;;;;17.55;12.20;;;;;;;;;;5011385;28;20408;-89
2022/01/24 08:46:45;;;;;;;19.30;12.60;;;;;;;;;;5023466;28;20049;-87
2022/01/24 08:49:11;;;;;;;23.10;13.48;;;;;;;;;;5029253;28;20054;-87
2022/01/24 08:51:37;;;;;;;22.73;13.27;;;;;;;;;;5015116;28;20042;-89
2022/01/24 08:54:04;;;;;;;23.45;14.07;;;;;;;;;;5033301;28;20042;-86
2022/01/24 08:56:30;;;;;;;21.40;12.88;;;;;;;;;;5015313;28;20502;-87
2022/01/24 08:58:56;;;;;;;23.10;13.88;;;;;;;;;;5015504;28;20037;-87
2022/01/24 09:01:22;;;;;;;22.77;14.55;;;;;;;;;;5015571;28;20112;-87
2022/01/24 09:03:48;;;;;;;23.65;14.50;;;;;;;;;;5015666;28;20300;-87
2022/01/24 09:06:17;;;;;;;21.90;13.65;;;;;;;;;;5015156;28;20041;-87
2022/01/24 09:08:43;;;;;;;25.75;15.90;;;;;;;;;;5015379;28;20099;-89
2022/01/24 09:11:09;;;;;;;24.80;14.95;;;;;;;;;;5015099;28;20052;-89
2022/01/24 09:13:35;;;;;;;24.42;15.40;;;;;;;;;;5015388;28;20437;-91
2022/01/24 09:16:02;;;;;;;28.35;16.98;;;;;;;;;;5015163;28;20508;-88
2022/01/24 09:18:29;;;;;;;30.95;17.77;;;;;;;;;;5015131;28;20045;-89
2022/01/24 09:20:55;;;;;;;25.08;15.45;;;;;;;;;;5009010;28;20136;-88
2022/01/24 09:23:22;;;;;;;22.88;14.52;;;;;;;;;;5014608;28;20045;-84
2022/01/24 09:25:48;;;;;;;22.42;13.73;;;;;;;;;;4998982;28;20049;-87
2022/01/24 09:28:14;;;;;;;23.15;15.25;;;;;;;;;;5015041;28;20041;-88
2022/01/24 09:30:40;;;;;;;28.55;16.98;;;;;;;;;;5032674;28;20099;-87
2022/01/24 09:33:06;;;;;;;31.67;18.55;;;;;;;;;;5014723;28;20038;-88
2022/01/24 09:35:33;;;;;;;28.25;17.45;;;;;;;;;;5015135;28;20038;-87
2022/01/24 09:37:59;;;;;;;30.08;18.63;;;;;;;;;;5015781;28;20064;-89
2022/01/24 09:40:25;;;;;;;28.15;15.93;;;;;;;;;;5029598;28;20060;-88
2022/01/24 09:42:52;;;;;;;29.52;18.25;;;;;;;;;;5014441;28;20061;-89
2022/01/24 09:45:19;;;;;;;33.00;19.27;;;;;;;;;;5031756;28;20045;-87
2022/01/24 09:47:45;;;;;;;32.72;19.15;;;;;;;;;;5014778;28;20128;-87
2022/01/24 09:50:13;;;;;;;34.38;20.05;;;;;;;;;;5031262;28;20052;-87
2022/01/24 09:52:40;;;;;;;35.10;20.83;;;;;;;;;;5032245;28;20045;-89
2022/01/24 09:55:06;;;;;;;37.92;21.27;;;;;;;;;;5016109;28;20044;-87
2022/01/24 09:57:32;;;;;;;37.85;20.60;;;;;;;;;;5014536;28;20090;-89
2022/01/24 09:59:58;;;;;;;42.15;23.58;;;;;;;;;;5032757;28;20187;-89
2022/01/24 10:02:25;;;;;;;43.17;23.23;;;;;;;;;;5014526;28;20140;-88
2022/01/24 10:04:51;;;;;;;42.70;23.75;;;;;;;;;;5032406;28;20038;-89
2022/01/24 10:07:17;;;;;;;42.10;24.52;;;;;;;;;;5014558;28;20044;-88
2022/01/24 10:09:43;;;;;;;49.55;25.80;;;;;;;;;;5014636;28;20049;-88
2022/01/24 10:17:47;;;;;;;44.78;27.23;;;;;;;;;;5014433;28;20046;-91
2022/01/24 10:20:16;;;;;;;49.50;28.13;;;;;;;;;;5014677;28;20053;-90
2022/01/24 10:22:42;;;;;;;51.78;27.50;;;;;;;;;;5015353;28;20045;-89
2022/01/24 10:25:11;;;;;;;48.42;27.77;;;;;;;;;;5014604;28;20053;-90
2022/01/24 10:27:41;;;;;;;48.55;27.98;;;;;;;;;;5014371;28;20049;-89
2022/01/24 10:30:10;;;;;;;55.47;29.02;;;;;;;;;;5014736;28;20388;-89
2022/01/24 10:32:38;;;;;;;54.83;29.63;;;;;;;;;;5031043;28;20049;-91
2022/01/24 10:35:23;;;;;;;53.75;29.15;;;;;;;;;;5014388;28;20053;-89
2022/01/24 10:37:49;;;;;;;54.83;30.65;;;;;;;;;;5017905;28;20092;-89
2022/01/24 10:40:34;;;;;;;58.33;30.05;;;;;;;;;;5034897;28;20057;-89
2022/01/24 10:43:20;;;;;;;54.47;28.88;;;;;;;;;;5034225;28;20180;-89
2022/01/24 10:45:47;;;;;;;54.15;30.15;;;;;;;;;;5017732;28;20053;-91
2022/01/24 10:48:14;;;;;;;57.60;31.10;;;;;;;;;;5017609;28;20077;-89
2022/01/24 10:50:40;;;;;;;55.90;29.33;;;;;;;;;;5017920;28;20492;-91
2022/01/24 10:53:11;;;;;;;56.10;30.27;;;;;;;;;;5017554;28;20393;-89
2022/01/24 10:55:39;;;;;;;59.35;31.35;;;;;;;;;;5034364;28;20048;-90
2022/01/24 10:58:07;;;;;;;60.58;33.15;;;;;;;;;;5017497;28;20048;-91
2022/01/24 11:00:34;;;;;;;57.13;33.50;;;;;;;;;;5017633;28;20508;-90
2022/01/24 11:03:02;;;;;;;64.63;34.40;;;;;;;;;;5017633;28;20528;-89
2022/01/24 11:05:35;;;;;;;58.35;32.45;;;;;;;;;;5034094;28;20053;-90
2022/01/24 11:08:12;;;;;;;59.95;32.92;;;;;;;;;;5017660;28;20130;-90
2022/01/24 11:10:39;;;;;;;59.55;32.85;;;;;;;;;;5017576;28;20110;-91
2022/01/24 11:13:06;;;;;;;60.92;32.80;;;;;;;;;;5017261;28;20073;-90
2022/01/24 11:15:33;;;;;;;58.28;33.53;;;;;;;;;;5034095;28;20033;-90
2022/01/24 11:17:59;;;;;;;64.55;33.40;;;;;;;;;;5017347;28;20049;-89
2022/01/24 11:20:32;;;;;;;61.78;34.53;;;;;;;;;;5033972;28;20077;-91
2022/01/24 11:23:01;;;;;;;62.63;33.30;;;;;;;;;;5014733;28;20400;-90
2022/01/24 11:25:28;;;;;;;59.85;34.90;;;;;;;;;;5036513;28;20077;-89
2022/01/24 11:27:54;;;;;;;64.50;34.78;;;;;;;;;;5016990;28;20048;-89
2022/01/24 11:30:22;;;;;;;61.35;34.65;;;;;;;;;;5017141;28;20049;-89
2022/01/24 11:32:50;;;;;;;60.45;35.72;;;;;;;;;;5017177;28;20431;-91
2022/01/24 11:35:30;;;;;;;68.35;35.55;;;;;;;;;;5017031;28;20041;-89
2022/01/24 11:37:57;;;;;;;60.08;34.10;;;;;;;;;;5017056;28;20049;-88
2022/01/24 11:40:23;;;;;;;60.53;36.15;;;;;;;;;;5016909;28;20045;-90
2022/01/24 11:42:50;;;;;;;69.18;37.03;;;;;;;;;;5033100;28;20065;-89
2022/01/24 11:45:18;;;;;;;56.63;33.60;;;;;;;;;;5016898;28;20053;-90
2022/01/24 11:47:45;;;;;;;58.25;34.00;;;;;;;;;;5033003;28;20124;-89
2022/01/24 11:50:36;;;;;;;61.88;35.17;;;;;;;;;;5016831;28;20037;-89
2022/01/24 11:53:18;;;;;;;62.60;36.22;;;;;;;;;;5016624;28;20072;-90
2022/01/24 11:55:44;;;;;;;62.83;34.70;;;;;;;;;;5016759;28;20041;-89
2022/01/24 11:58:10;;;;;;;58.17;34.22;;;;;;;;;;5016329;28;20048;-89
2022/01/24 12:00:42;;;;;;;52.85;31.90;;;;;;;;;;5016870;28;20049;-90
2022/01/24 12:03:29;;;;;;;52.60;30.95;;;;;;;;;;5016245;28;20041;-89
2022/01/24 12:06:04;;;;;;;53.55;33.22;;;;;;;;;;5016540;28;20038;-89
2022/01/24 12:08:32;;;;;;;56.38;32.40;;;;;;;;;;5016358;28;20049;-89
2022/01/24 12:11:14;;;;;;;50.75;31.17;;;;;;;;;;5034182;28;20052;-91
2022/01/24 12:13:46;;;;;;;50.42;30.13;;;;;;;;;;5032847;28;20067;-89
2022/01/24 12:16:13;;;;;;;46.67;28.75;;;;;;;;;;5016407;28;20040;-89
2022/01/24 12:18:38;;;;;;;42.80;26.55;;;;;;;;;;5016063;28;20257;-90
2022/01/24 12:21:09;;;;;;;42.25;26.42;;;;;;;;;;5016284;28;20513;-90
2022/01/24 12:23:45;;;;;;;48.45;30.25;;;;;;;;;;5015931;28;20125;-89
2022/01/24 12:26:14;;;;;;;42.22;26.10;;;;;;;;;;5016761;28;20050;-88
2022/01/24 12:28:43;;;;;;;43.72;27.83;;;;;;;;;;5034189;28;20037;-90
2022/01/24 12:31:10;;;;;;;45.10;28.10;;;;;;;;;;5016269;28;20060;-90
2022/01/24 12:33:43;;;;;;;39.97;25.73;;;;;;;;;;5016137;28;20037;-90
2022/01/24 12:36:14;;;;;;;43.05;26.85;;;;;;;;;;5016000;28;20124;-89
2022/01/24 12:38:49;;;;;;;40.60;25.63;;;;;;;;;;5032195;28;20037;-90
2022/01/24 12:41:17;;;;;;;44.88;29.00;;;;;;;;;;5034671;28;20041;-89
2022/01/24 12:43:56;;;;;;;44.85;27.88;;;;;;;;;;5032125;28;20471;-89
2022/01/24 12:46:25;;;;;;;39.90;25.45;;;;;;;;;;5032238;28;20045;-89
2022/01/24 12:48:51;;;;;;;46.22;29.52;;;;;;;;;;5031949;28;20046;-89
2022/01/24 12:51:21;;;;;;;42.10;27.55;;;;;;;;;;5015575;28;20386;-89
2022/01/24 12:53:47;;;;;;;43.47;27.70;;;;;;;;;;5015372;28;20038;-87
2022/01/24 12:56:14;;;;;;;41.08;26.42;;;;;;;;;;5015659;28;20564;-88
2022/01/24 12:58:42;;;;;;;42.05;26.80;;;;;;;;;;5014835;28;20077;-89
2022/01/24 13:01:22;;;;;;;43.20;28.60;;;;;;;;;;5015496;28;20503;-89
2022/01/24 13:03:52;;;;;;;41.90;26.52;;;;;;;;;;5015156;28;20045;-89
2022/01/24 13:06:18;;;;;;;39.65;25.75;;;;;;;;;;5032380;28;20065;-92
2022/01/24 13:09:02;;;;;;;44.28;29.42;;;;;;;;;;5015315;28;20081;-89
2022/01/24 13:11:29;;;;;;;44.25;29.35;;;;;;;;;;5015472;28;20081;-91
2022/01/24 13:14:07;;;;;;;42.13;27.58;;;;;;;;;;5031848;28;20041;-92
2022/01/24 13:22:16;;;;;;;38.63;25.40;;;;;;;;;;5015334;28;20038;-90
2022/01/24 13:25:00;;;;;;;46.50;28.23;;;;;;;;;;5015100;28;20049;-90
2022/01/24 13:27:46;;;;;;;40.17;27.48;;;;;;;;;;5016199;28;20045;-91
2022/01/24 13:30:32;;;;;;;40.90;26.63;;;;;;;;;;5015254;28;20124;-91
2022/01/24 13:33:06;;;;;;;36.20;23.88;;;;;;;;;;5008579;28;20049;-92
2022/01/24 13:35:37;;;;;;;39.45;25.85;;;;;;;;;;5015992;28;20164;-90
2022/01/24 13:38:04;;;;;;;41.78;24.30;;;;;;;;;;5018253;28;20041;-89
2022/01/24 13:41:04;;;;;;;40.67;26.25;;;;;;;;;;5015056;28;20063;-90
2022/01/24 13:43:35;;;;;;;47.33;28.85;;;;;;;;;;5031166;28;20458;-90
2022/01/24 13:46:06;;;;;;;42.28;27.00;;;;;;;;;;5015528;28;20384;-89
2022/01/24 13:49:12;;;;;;;40.50;26.23;;;;;;;;;;5015619;28;20085;-92
2022/01/24 13:51:41;;;;;;;38.58;25.48;;;;;;;;;;4975148;28;20050;-91
2022/01/24 13:54:09;;;;;;;44.58;28.25;;;;;;;;;;4992641;28;20439;-90
2022/01/24 13:56:43;;;;;;;40.10;25.23;;;;;;;;;;5034292;28;20072;-92
2022/01/24 13:59:18;;;;;;;37.60;24.15;;;;;;;;;;5032667;28;20435;-90
2022/01/24 14:01:55;;;;;;;35.45;23.45;;;;;;;;;;5015289;28;20041;-89
2022/01/24 14:04:28;;;;;;;37.65;23.70;;;;;;;;;;5014946;28;20057;-89
2022/01/24 14:06:59;;;;;;;42.08;28.00;;;;;;;;;;5032883;28;20427;-86
2022/01/24 14:09:32;;;;;;;41.80;25.63;;;;;;;;;;5014691;28;20046;-89
2022/01/24 14:11:58;;;;;;;41.63;25.75;;;;;;;;;;5017259;28;20046;-88
2022/01/24 14:14:37;;;;;;;43.60;27.13;;;;;;;;;;5018584;28;20038;-88
2022/01/24 14:17:19;;;;;;;37.13;23.85;;;;;;;;;;5018611;28;20053;-89
2022/01/24 14:19:53;;;;;;;36.53;23.02;;;;;;;;;;5018201;28;20037;-87
2022/01/24 14:22:19;;;;;;;36.15;24.00;;;;;;;;;;5036413;28;20412;-87
2022/01/24 14:24:56;;;;;;;36.95;23.75;;;;;;;;;;5018140;28;20041;-90
2022/01/24 14:27:35;;;;;;;40.20;25.13;;;;;;;;;;5018356;28;20496;-87
2022/01/24 14:30:06;;;;;;;33.08;22.20;;;;;;;;;;5017923;28;20037;-88
2022/01/24 14:32:34;;;;;;;40.35;24.33;;;;;;;;;;5018090;28;20493;-88
2022/01/24 14:35:07;;;;;;;38.97;24.98;;;;;;;;;;5034482;28;20045;-87
2022/01/24 14:37:50;;;;;;;39.22;23.90;;;;;;;;;;5018142;28;20038;-88
2022/01/24 14:40:35;;;;;;;36.95;24.65;;;;;;;;;;5017822;28;20042;-86
2022/01/24 14:45:45;;;;;;;38.70;26.17;;;;;;;;;;5017834;28;20041;-87
2022/01/24 14:48:12;;;;;;;39.53;25.33;;;;;;;;;;5017983;28;20480;-87
2022/01/24 14:50:38;;;;;;;39.58;26.38;;;;;;;;;;5017848;28;20045;-87
2022/01/24 14:53:07;;;;;;;43.83;29.17;;;;;;;;;;5034282;28;20374;-87
2022/01/24 14:55:33;;;;;;;43.30;27.83;;;;;;;;;;5034322;28;20050;-85
2022/01/24 14:57:59;;;;;;;47.60;29.92;;;;;;;;;;5017911;28;20064;-87
2022/01/24 15:00:26;;;;;;;47.88;30.73;;;;;;;;;;5017442;28;20050;-87
2022/01/24 15:02:54;;;;;;;42.70;28.15;;;;;;;;;;5034145;28;20045;-87
2022/01/24 15:05:20;;;;;;;44.45;29.67;;;;;;;;;;5017595;28;20049;-88
2022/01/24 15:07:47;;;;;;;40.58;26.15;;;;;;;;;;5019039;28;20044;-89
2022/01/24 15:10:13;;;;;;;43.33;27.63;;;;;;;;;;5017262;28;20048;-88
2022/01/24 15:12:46;;;;;;;47.40;29.30;;;;;;;;;;5034102;28;20378;-88
2022/01/24 15:15:15;;;;;;;43.88;29.02;;;;;;;;;;5033821;28;20068;-88
2022/01/24 15:23:58;;;;;;;44.75;28.73;;;;;;;;;;5034177;28;20090;-88
2022/01/24 15:26:04;;;;;;;44.60;27.35;;;;;;;;;;5016911;28;20049;-88
2022/01/24 15:28:29;;;;;;;47.38;28.40;;;;;;;;;;5017114;28;20049;-88
2022/01/24 15:30:55;;;;;;;43.88;27.42;;;;;;;;;;5016725;28;20064;-86
2022/01/24 15:33:21;;;;;;;46.53;28.83;;;;;;;;;;5017252;28;20071;-88
2022/01/24 15:35:47;;;;;;;48.05;30.33;;;;;;;;;;5016953;28;20546;-87
2022/01/24 15:38:14;;;;;;;44.15;29.15;;;;;;;;;;5017054;28;20037;-87
2022/01/24 15:40:40;;;;;;;49.25;30.02;;;;;;;;;;5033975;28;20049;-87
2022/01/24 15:43:23;;;;;;;48.47;31.02;;;;;;;;;;5033150;28;20061;-88
2022/01/24 15:48:21;;;;;;;52.13;32.45;;;;;;;;;;5020172;28;20392;-87
2022/01/24 15:50:47;;;;;;;48.13;29.58;;;;;;;;;;5016420;28;20049;-87
2022/01/24 15:53:13;;;;;;;52.78;30.45;;;;;;;;;;5016692;28;20041;-87
2022/01/24 15:55:42;;;;;;;50.28;31.92;;;;;;;;;;5016345;28;20044;-87
2022/01/24 15:58:08;;;;;;;50.42;30.27;;;;;;;;;;5033202;28;20107;-87
2022/01/24 16:00:38;;;;;;;52.10;31.80;;;;;;;;;;5016299;28;20128;-88
2022/01/24 16:03:06;;;;;;;51.08;31.33;;;;;;;;;;5032903;28;20419;-88
2022/01/24 16:05:33;;;;;;;46.65;28.17;;;;;;;;;;5016301;28;20045;-87
2022/01/24 16:07:59;;;;;;;48.92;30.02;;;;;;;;;;5016385;28;20456;-87
2022/01/24 16:10:27;;;;;;;49.38;29.48;;;;;;;;;;5016019;28;20049;-87
2022/01/24 16:12:54;;;;;;;52.17;30.45;;;;;;;;;;5016142;28;20037;-88
2022/01/24 16:15:21;;;;;;;48.05;30.42;;;;;;;;;;5016058;28;20433;-87
2022/01/24 16:17:48;;;;;;;48.28;30.45;;;;;;;;;;5017875;28;20033;-88
2022/01/24 16:23:05;;;;;;;48.75;29.85;;;;;;;;;;5016195;28;20049;-89
2022/01/24 16:25:37;;;;;;;50.42;31.05;;;;;;;;;;5015814;28;20045;-87
2022/01/24 16:28:21;;;;;;;45.53;27.73;;;;;;;;;;5017218;28;20099;-87
2022/01/24 16:30:48;;;;;;;46.33;29.27;;;;;;;;;;5033888;28;20053;-88
2022/01/24 16:33:15;;;;;;;46.22;28.13;;;;;;;;;;5015144;28;20037;-88
2022/01/24 16:35:41;;;;;;;43.03;27.25;;;;;;;;;;5015599;28;20080;-89